Time;durP1;ratioP1;P1;durP2;ratioP2;P2;SDS_P1;SDS_P2;PMS_P1;PMS_P2;Temp;Humidity;BMP_temperature;BMP_pressure;BME280_temperature;BME280_humidity;BME280_pressure;Samples;Min_cycle;Max_cycle;Signal;HPM_P1;HPM_P2
2021/08/17 00:00:41;;;;;;;9.55;6.90;;;;;;;28.25;51.99;98263.31;5107380;28;20043;-62
2021/08/17 00:03:07;;;;;;;11.93;7.50;;;;;;;28.18;51.62;98248.81;5111366;28;20118;-59
2021/08/17 00:05:36;;;;;;;11.75;8.77;;;;;;;28.14;51.95;98223.31;5112926;28;20044;-58
2021/08/17 00:08:03;;;;;;;11.23;7.10;;;;;;;28.10;52.04;98206.69;5111944;28;20493;-56
2021/08/17 00:10:30;;;;;;;13.93;7.47;;;;;;;28.08;52.03;98206.81;5114079;28;20043;-60
2021/08/17 00:12:57;;;;;;;14.80;7.55;;;;;;;28.03;52.18;98230.53;5112783;28;20100;-58
2021/08/17 00:15:24;;;;;;;12.63;7.05;;;;;;;28.00;52.12;98249.56;5112803;28;20451;-59
2021/08/17 00:17:50;;;;;;;12.38;7.95;;;;;;;27.98;52.29;98250.69;5112220;28;20051;-57
2021/08/17 00:20:17;;;;;;;10.77;7.22;;;;;;;28.03;52.47;98261.81;5113090;28;20443;-60
2021/08/17 00:22:45;;;;;;;10.90;7.60;;;;;;;28.05;52.55;98273.22;5111927;28;20122;-64
2021/08/17 00:25:12;;;;;;;12.05;6.90;;;;;;;28.09;52.29;98290.69;5113493;28;20093;-61
2021/08/17 04:18:32;;;;;;;8.55;3.72;;;;;;;24.46;59.74;98490.13;5149980;27;20126;-54
2021/08/17 04:20:58;;;;;;;8.10;3.50;;;;;;;24.58;59.25;98485.72;5146466;27;20047;-56
2021/08/17 04:23:25;;;;;;;10.65;3.35;;;;;;;24.69;59.96;98483.09;5143199;27;20039;-58
2021/08/17 04:25:52;;;;;;;7.63;3.80;;;;;;;24.80;58.93;98468.97;5110051;28;20048;-53
2021/08/17 04:28:18;;;;;;;9.85;3.70;;;;;;;24.92;59.26;98473.31;5120395;28;20055;-54
2021/08/17 04:30:45;;;;;;;8.38;3.30;;;;;;;25.01;59.03;98485.09;5110164;28;20040;-54
2021/08/17 04:33:12;;;;;;;8.85;3.50;;;;;;;25.13;58.50;98507.28;5114751;27;20439;-54
2021/08/17 04:35:40;;;;;;;8.65;3.38;;;;;;;25.25;58.39;98558.84;5130077;28;20047;-54
2021/08/17 04:38:07;;;;;;;7.47;3.70;;;;;;;25.35;58.19;98560.66;5123697;28;20096;-55
2021/08/17 04:40:33;;;;;;;8.95;3.20;;;;;;;25.46;57.88;98502.97;5121785;27;20043;-55
2021/08/17 04:43:00;;;;;;;10.18;3.60;;;;;;;25.54;57.76;98505.88;5109726;28;20101;-58
2021/08/17 04:45:27;;;;;;;6.97;3.17;;;;;;;25.63;57.70;98518.50;5116185;28;20104;-54
2021/08/17 04:47:54;;;;;;;7.65;3.22;;;;;;;25.72;57.38;98515.06;5129354;27;20083;-56
2021/08/17 04:50:21;;;;;;;11.77;3.80;;;;;;;25.78;57.22;98507.53;5130598;27;20051;-55
2021/08/17 04:52:49;;;;;;;8.80;3.55;;;;;;;25.82;57.09;98509.84;5110194;27;20051;-57
2021/08/17 04:55:16;;;;;;;6.82;3.65;;;;;;;25.88;56.85;98521.84;5110924;28;20093;-57
2021/08/17 04:57:50;;;;;;;7.20;3.15;;;;;;;25.99;56.73;98526.34;5127028;27;20552;-58
2021/08/17 05:00:17;;;;;;;6.57;3.10;;;;;;;26.09;56.75;98517.47;5123372;27;20052;-56
2021/08/17 05:02:44;;;;;;;6.38;3.15;;;;;;;26.16;56.19;98525.81;5124233;27;20040;-57
2021/08/17 05:05:11;;;;;;;5.80;3.20;;;;;;;26.24;56.15;98531.38;5116861;27;20059;-56
2021/08/17 05:07:38;;;;;;;12.30;3.60;;;;;;;26.33;56.08;98527.13;5150697;27;20134;-46
2021/08/17 05:10:07;;;;;;;10.18;3.40;;;;;;;26.40;55.71;98565.69;5150605;27;20162;-45
2021/08/17 05:12:34;;;;;;;14.88;4.10;;;;;;;26.40;55.85;98632.44;5134821;27;20047;-46
2021/08/17 14:38:03;;;;;;;6.53;1.95;;;;;;;24.07;50.99;99106.88;5174163;27;20148;-60
2021/08/17 14:40:31;;;;;;;3.75;1.80;;;;;;;24.09;51.27;99112.13;5140607;27;20043;-59
2021/08/17 14:42:57;;;;;;;3.17;1.90;;;;;;;24.13;50.93;99114.47;5139233;27;20043;-62
2021/08/17 14:45:24;;;;;;;2.85;1.90;;;;;;;24.19;51.05;99115.88;5139271;27;20042;-61
2021/08/17 14:47:51;;;;;;;3.88;2.00;;;;;;;24.27;50.89;99110.94;5138567;27;20059;-61
2021/08/17 14:50:17;;;;;;;5.10;1.98;;;;;;;24.37;51.10;99111.22;5134749;27;20459;-61
2021/08/17 14:52:44;;;;;;;2.58;1.95;;;;;;;24.44;50.56;99123.16;5137886;27;20047;-61
2021/08/17 14:55:13;;;;;;;2.83;1.80;;;;;;;24.51;50.84;99113.84;5132079;27;20043;-59
2021/08/17 14:57:40;;;;;;;7.97;2.20;;;;;;;24.60;50.68;99123.03;5134258;27;20039;-55
2021/08/17 15:00:07;;;;;;;5.85;2.28;;;;;;;24.66;50.42;99127.09;5137092;27;20054;-57
2021/08/17 15:02:34;;;;;;;3.53;2.10;;;;;;;24.72;49.84;99137.38;5133880;27;20039;-62
2021/08/17 15:05:00;;;;;;;4.97;2.03;;;;;;;24.77;50.10;99135.25;5130617;27;20357;-66
2021/08/17 15:07:27;;;;;;;3.58;1.95;;;;;;;24.81;48.96;99131.41;5128668;27;20047;-63
2021/08/17 15:09:54;;;;;;;4.28;2.10;;;;;;;24.81;48.67;99128.75;5134445;27;20096;-57
2021/08/17 15:12:22;;;;;;;6.22;2.20;;;;;;;24.81;48.43;99133.22;5135124;27;20067;-55
2021/08/17 15:14:49;;;;;;;4.45;2.03;;;;;;;24.83;47.84;99136.66;5136247;27;20051;-60
2021/08/17 15:17:16;;;;;;;3.22;2.00;;;;;;;24.86;48.11;99125.78;5133618;27;20043;-56
2021/08/17 15:19:43;;;;;;;3.65;1.88;;;;;;;24.91;47.87;99121.88;5127352;27;20043;-57
2021/08/17 15:22:09;;;;;;;6.18;2.10;;;;;;;24.96;48.43;99118.88;5136601;27;20068;-57
2021/08/17 15:24:37;;;;;;;4.07;2.00;;;;;;;24.99;47.66;99123.13;5134377;27;20099;-57
2021/08/17 15:27:05;;;;;;;6.22;2.50;;;;;;;24.94;47.59;99121.63;5131909;27;20039;-61
2021/08/17 15:29:34;;;;;;;7.10;2.10;;;;;;;24.97;47.88;99123.25;5133748;27;20044;-59
2021/08/17 15:32:02;;;;;;;3.75;2.17;;;;;;;24.99;47.72;99124.00;5143555;27;20059;-58
2021/08/17 15:34:28;;;;;;;4.55;2.10;;;;;;;24.99;47.48;99125.81;5136718;27;20069;-57
2021/08/17 15:36:55;;;;;;;3.38;1.83;;;;;;;25.03;47.60;99129.97;5116306;27;20058;-55
2021/08/17 15:39:24;;;;;;;3.95;2.05;;;;;;;25.08;47.78;99135.84;5145419;27;20565;-56
2021/08/17 15:41:51;;;;;;;3.83;2.13;;;;;;;25.11;47.00;99133.00;5136121;27;20051;-56
2021/08/17 15:44:18;;;;;;;3.17;2.00;;;;;;;25.12;47.46;99130.19;5131396;27;20039;-56
2021/08/17 15:46:47;;;;;;;2.65;1.90;;;;;;;25.17;47.40;99121.91;5130090;27;20532;-56
2021/08/17 15:49:13;;;;;;;4.63;2.05;;;;;;;25.24;47.67;99127.69;5127804;27;20043;-56
2021/08/17 15:51:40;;;;;;;2.90;2.00;;;;;;;25.27;47.44;99123.00;5119384;27;20073;-59
2021/08/17 15:54:07;;;;;;;6.60;2.28;;;;;;;25.31;47.27;99119.16;5123513;27;20047;-63
2021/08/17 15:56:34;;;;;;;10.45;2.33;;;;;;;25.35;46.74;99122.47;5113110;27;20493;-58
2021/08/17 15:59:00;;;;;;;5.15;2.10;;;;;;;25.40;47.01;99127.50;5113745;28;20081;-57
2021/08/17 16:01:27;;;;;;;4.78;1.95;;;;;;;25.44;46.85;99137.00;5113480;28;20039;-57
2021/08/17 16:03:56;;;;;;;2.75;1.92;;;;;;;25.47;46.18;99128.78;5113620;28;20485;-58
2021/08/17 16:06:23;;;;;;;5.65;2.20;;;;;;;25.50;46.66;99128.56;5115391;28;20127;-59
2021/08/17 16:08:50;;;;;;;3.75;2.00;;;;;;;25.47;45.76;99129.63;5114325;28;20447;-57
2021/08/17 16:11:17;;;;;;;4.43;2.10;;;;;;;25.44;45.08;99137.00;5113767;28;20044;-57
2021/08/17 16:13:43;;;;;;;3.88;1.95;;;;;;;25.42;45.56;99133.59;5113813;28;20073;-57
2021/08/17 16:16:10;;;;;;;5.50;2.20;;;;;;;25.41;45.43;99134.53;5113473;28;20104;-55
2021/08/17 16:18:37;;;;;;;2.88;1.90;;;;;;;25.42;45.73;99136.25;5114055;28;20044;-56
2021/08/17 16:21:09;;;;;;;4.28;2.15;;;;;;;25.42;45.65;99146.94;5113517;28;20097;-57
2021/08/17 16:23:37;;;;;;;4.30;2.10;;;;;;;25.46;45.63;99143.09;5120693;27;20446;-57
2021/08/17 16:26:03;;;;;;;4.22;1.90;;;;;;;25.47;45.40;99142.97;5112869;27;20055;-57
2021/08/17 16:28:30;;;;;;;3.75;2.15;;;;;;;25.47;44.22;99134.13;5094728;28;20048;-56
2021/08/17 16:30:57;;;;;;;4.00;2.15;;;;;;;25.49;44.85;99134.84;5110763;28;20484;-53
2021/08/17 16:33:23;;;;;;;3.67;2.00;;;;;;;25.50;44.12;99137.44;5114866;28;20051;-52
2021/08/17 16:35:50;;;;;;;4.47;1.95;;;;;;;25.51;44.71;99132.94;5114630;28;20043;-52
2021/08/17 16:38:18;;;;;;;4.22;2.00;;;;;;;25.53;44.77;99123.00;5114894;28;20048;-54
2021/08/17 16:40:45;;;;;;;3.50;2.17;;;;;;;25.52;44.07;99127.50;5114563;28;20405;-54
2021/08/17 16:43:12;;;;;;;4.13;2.10;;;;;;;25.51;44.49;99128.47;5106453;28;20044;-53
2021/08/17 16:45:39;;;;;;;5.50;2.38;;;;;;;25.49;43.43;99124.19;5111600;28;20044;-53
2021/08/17 16:48:06;;;;;;;3.83;2.20;;;;;;;25.49;43.64;99132.19;5113420;28;20112;-54
2021/08/17 16:50:33;;;;;;;3.67;2.10;;;;;;;25.47;43.81;99134.97;5113255;28;20036;-56
2021/08/17 16:53:00;;;;;;;3.63;2.08;;;;;;;25.50;44.14;99128.56;5113470;28;20513;-56
2021/08/17 16:55:28;;;;;;;4.80;2.28;;;;;;;25.50;43.85;99133.91;5114291;28;20048;-57
2021/08/17 16:57:55;;;;;;;5.95;2.58;;;;;;;25.51;43.95;99130.28;5114214;28;20714;-57
2021/08/17 17:00:22;;;;;;;5.30;2.38;;;;;;;25.50;43.48;99131.25;5112110;28;20050;-57
2021/08/17 17:02:49;;;;;;;4.45;2.10;;;;;;;25.51;44.04;99140.94;5114257;28;20052;-57
2021/08/17 17:05:16;;;;;;;3.17;2.10;;;;;;;25.51;43.35;99149.81;5119457;27;20043;-58
2021/08/17 17:07:43;;;;;;;3.83;2.20;;;;;;;25.51;43.75;99147.16;5110603;27;20095;-59
2021/08/17 17:10:11;;;;;;;4.55;2.17;;;;;;;25.55;43.70;99153.09;5123492;27;20044;-59
2021/08/17 17:12:39;;;;;;;4.68;2.20;;;;;;;25.58;43.77;99155.56;5117626;27;20455;-59
2021/08/17 17:15:07;;;;;;;5.03;2.25;;;;;;;25.62;43.56;99156.22;5122446;27;20035;-59
2021/08/17 17:17:34;;;;;;;2.83;2.10;;;;;;;25.63;43.68;99145.44;5124404;27;20088;-59
2021/08/17 17:20:00;;;;;;;4.82;2.10;;;;;;;25.63;43.41;99150.78;5121961;27;20097;-57
2021/08/17 17:22:27;;;;;;;6.07;2.58;;;;;;;25.65;43.55;99151.53;5114087;28;20100;-56
2021/08/17 17:24:54;;;;;;;5.60;2.45;;;;;;;25.66;43.83;99150.53;5113591;28;20069;-60
2021/08/17 17:27:20;;;;;;;3.47;2.30;;;;;;;25.68;43.53;99145.09;5113521;28;20051;-58
2021/08/17 17:29:48;;;;;;;5.03;2.30;;;;;;;25.69;43.30;99154.84;5112405;28;20481;-58
2021/08/17 17:32:15;;;;;;;3.80;2.20;;;;;;;25.70;43.29;99159.19;5112231;28;20481;-58
2021/08/17 17:34:42;;;;;;;6.32;2.67;;;;;;;25.71;43.66;99163.59;5113640;28;20044;-58
2021/08/17 17:37:09;;;;;;;3.50;2.25;;;;;;;25.71;43.50;99159.09;5113207;28;20509;-60
2021/08/17 17:39:35;;;;;;;5.88;2.33;;;;;;;25.72;43.37;99166.13;5113404;28;20070;-57
2021/08/17 17:42:02;;;;;;;4.63;2.10;;;;;;;25.73;43.69;99169.66;5111761;28;20055;-58
2021/08/17 17:44:29;;;;;;;4.10;2.15;;;;;;;25.75;43.96;99178.41;5109864;28;20450;-58
2021/08/17 17:46:57;;;;;;;3.10;2.22;;;;;;;25.77;43.91;99175.66;5091468;28;20094;-58
2021/08/17 17:49:24;;;;;;;3.78;2.25;;;;;;;25.77;44.20;99167.63;5107544;28;20096;-58
2021/08/17 17:51:50;;;;;;;6.22;2.40;;;;;;;25.79;44.07;99168.38;5113264;28;20479;-58
2021/08/17 17:54:17;;;;;;;4.28;2.20;;;;;;;25.80;44.00;99172.75;5109515;28;20039;-58
2021/08/17 17:56:44;;;;;;;3.25;2.17;;;;;;;25.81;44.00;99166.47;5103607;28;20044;-58
2021/08/17 17:59:10;;;;;;;4.55;2.35;;;;;;;25.82;44.01;99177.00;5091303;28;20044;-61
2021/08/17 18:01:38;;;;;;;3.90;2.38;;;;;;;25.83;43.91;99177.88;5104159;28;20080;-58
2021/08/17 18:04:06;;;;;;;5.65;2.40;;;;;;;25.83;43.93;99183.22;5112353;28;20051;-58
2021/08/17 18:06:33;;;;;;;5.93;2.25;;;;;;;25.84;43.97;99180.44;5112758;28;20089;-58
2021/08/17 18:09:00;;;;;;;3.53;2.13;;;;;;;25.84;44.06;99182.25;5112098;28;20051;-58
2021/08/17 18:11:27;;;;;;;4.25;2.25;;;;;;;25.83;44.33;99178.72;5112607;28;20048;-57
2021/08/17 18:13:55;;;;;;;4.65;2.28;;;;;;;25.83;44.18;99172.53;5102757;28;20052;-57
2021/08/17 18:16:21;;;;;;;3.78;2.28;;;;;;;25.84;44.27;99184.91;5110378;28;20043;-57
2021/08/17 18:18:48;;;;;;;4.07;2.20;;;;;;;25.84;44.45;99185.78;5110555;28;20459;-58
2021/08/17 18:21:16;;;;;;;3.30;1.95;;;;;;;25.85;44.27;99192.81;5111495;28;20047;-57
2021/08/17 18:23:43;;;;;;;3.85;2.00;;;;;;;25.85;44.21;99198.16;5111844;28;20044;-57
2021/08/17 18:26:10;;;;;;;4.80;2.50;;;;;;;25.84;43.88;99196.47;5112482;28;20435;-58
2021/08/17 18:28:38;;;;;;;3.85;2.20;;;;;;;25.79;43.77;99205.75;5112601;28;20052;-58
2021/08/17 18:31:05;;;;;;;4.15;2.30;;;;;;;25.80;43.93;99208.28;5094706;28;20052;-57
2021/08/17 18:33:32;;;;;;;4.63;2.25;;;;;;;25.79;43.86;99208.41;5112897;28;20044;-56
2021/08/17 18:35:59;;;;;;;4.25;2.58;;;;;;;25.77;43.64;99202.34;5111858;28;20097;-56
2021/08/17 18:38:27;;;;;;;4.93;2.60;;;;;;;25.77;43.64;99199.66;5094597;28;20055;-57
2021/08/17 18:40:54;;;;;;;4.85;2.30;;;;;;;25.78;43.69;99201.34;5112562;28;20044;-56
2021/08/17 18:43:20;;;;;;;4.40;2.40;;;;;;;25.78;43.91;99201.34;5112881;28;20043;-58
2021/08/17 18:45:47;;;;;;;5.68;2.67;;;;;;;25.77;43.68;99200.50;5112755;28;20097;-55
2021/08/17 18:48:14;;;;;;;7.90;2.30;;;;;;;25.75;43.56;99218.44;5112269;28;20187;-55
2021/08/17 18:50:41;;;;;;;7.85;2.45;;;;;;;25.72;43.68;99211.47;5112807;28;20040;-56
2021/08/17 18:53:09;;;;;;;5.50;2.63;;;;;;;25.71;43.60;99211.63;5112107;28;20117;-56
2021/08/17 18:55:37;;;;;;;6.63;2.30;;;;;;;25.71;43.19;99206.28;5112140;28;20036;-64
2021/08/17 18:58:04;;;;;;;5.18;2.78;;;;;;;25.70;43.52;99209.91;5111753;28;20439;-62
2021/08/17 19:00:31;;;;;;;6.60;2.50;;;;;;;25.69;43.59;99211.72;5112248;28;20043;-61
2021/08/17 19:02:57;;;;;;;6.15;2.60;;;;;;;25.67;43.63;99205.63;5111850;28;20096;-59
2021/08/17 19:05:24;;;;;;;5.50;2.30;;;;;;;25.65;43.44;99199.56;5112355;28;20213;-59
2021/08/17 19:07:51;;;;;;;5.57;2.67;;;;;;;25.64;43.35;99208.50;5111751;28;20043;-59
2021/08/17 19:10:18;;;;;;;5.18;2.58;;;;;;;25.62;43.41;99209.56;5093851;28;20092;-59
2021/08/17 19:12:46;;;;;;;7.00;2.50;;;;;;;25.62;43.45;99205.09;5112094;28;20047;-59
2021/08/17 19:15:13;;;;;;;5.50;2.40;;;;;;;25.63;43.75;99206.81;5112316;28;20075;-59
2021/08/17 19:17:40;;;;;;;5.40;2.50;;;;;;;25.61;43.65;99200.72;5112010;28;20126;-59
2021/08/17 19:20:08;;;;;;;5.72;2.47;;;;;;;25.61;43.76;99206.06;5112295;28;20093;-59
2021/08/17 19:22:34;;;;;;;5.90;2.28;;;;;;;25.60;43.99;99207.00;5112297;28;20100;-59
2021/08/17 19:25:01;;;;;;;4.25;2.30;;;;;;;25.61;43.82;99202.50;5115101;28;20566;-59
2021/08/17 19:27:28;;;;;;;5.25;2.38;;;;;;;25.61;43.76;99206.06;5123762;27;20043;-59
2021/08/17 19:29:56;;;;;;;3.67;2.33;;;;;;;25.61;43.94;99198.06;5136804;27;20043;-60
2021/08/17 19:32:23;;;;;;;5.20;2.40;;;;;;;25.62;44.10;99202.41;5117029;27;20108;-59
2021/08/17 19:34:49;;;;;;;4.60;2.40;;;;;;;25.58;44.28;99195.59;5116147;28;20043;-59
2021/08/17 19:37:18;;;;;;;4.30;2.30;;;;;;;25.58;44.16;99198.25;5115554;28;20132;-59
2021/08/17 19:39:45;;;;;;;4.80;2.63;;;;;;;25.58;43.92;99203.59;5115742;28;20051;-60
2021/08/17 19:42:13;;;;;;;4.63;2.20;;;;;;;25.57;44.30;99199.22;5116060;28;20120;-59
2021/08/17 19:44:40;;;;;;;6.00;2.40;;;;;;;25.58;44.32;99200.06;5115902;28;20443;-60
2021/08/17 19:47:08;;;;;;;4.40;2.30;;;;;;;25.58;44.34;99200.06;5115598;28;20507;-59
2021/08/17 19:49:35;;;;;;;5.00;2.45;;;;;;;25.53;44.23;99209.25;5115581;28;20100;-59
2021/08/17 19:52:03;;;;;;;5.25;2.75;;;;;;;25.50;44.29;99211.28;5115784;28;20097;-59
2021/08/17 19:54:30;;;;;;;6.00;2.45;;;;;;;25.48;44.32;99206.03;5115853;28;20047;-59
2021/08/17 19:56:56;;;;;;;5.75;2.50;;;;;;;25.48;44.32;99202.53;5115687;28;20048;-59
2021/08/17 19:59:23;;;;;;;4.20;2.20;;;;;;;25.48;44.34;99210.53;5115696;28;20055;-59
2021/08/17 20:01:50;;;;;;;4.85;2.30;;;;;;;25.47;44.49;99206.13;5123776;27;20445;-59
2021/08/17 20:04:18;;;;;;;4.38;2.20;;;;;;;25.45;44.35;99211.56;5136036;27;20043;-59
2021/08/17 20:06:44;;;;;;;8.05;2.50;;;;;;;25.46;44.46;99207.09;5136267;27;20043;-59
2021/08/17 20:09:11;;;;;;;5.93;2.33;;;;;;;25.47;44.22;99203.47;5136264;27;20047;-59
2021/08/17 20:11:39;;;;;;;6.78;2.40;;;;;;;25.45;44.21;99205.38;5121951;27;20044;-58
2021/08/17 20:14:06;;;;;;;4.25;2.40;;;;;;;25.45;44.34;99211.56;5115561;28;20044;-58
2021/08/17 20:16:32;;;;;;;5.88;2.42;;;;;;;25.44;44.21;99209.03;5105245;27;20130;-60
2021/08/17 20:19:00;;;;;;;5.25;2.25;;;;;;;25.42;44.18;99211.78;5094870;28;20101;-60
2021/08/17 20:21:28;;;;;;;3.42;2.28;;;;;;;25.41;44.45;99209.22;5119633;27;20100;-58
2021/08/17 20:23:55;;;;;;;6.80;2.50;;;;;;;25.42;44.33;99221.63;5114971;28;20128;-58
2021/08/17 20:26:22;;;;;;;4.28;2.53;;;;;;;25.40;44.38;99211.03;5114848;28;20047;-57
2021/08/17 20:28:49;;;;;;;3.53;2.25;;;;;;;25.39;44.32;99213.81;5096930;28;20055;-57
2021/08/17 20:31:16;;;;;;;4.20;2.40;;;;;;;25.37;44.39;99221.91;5115170;28;20044;-59
2021/08/17 20:33:43;;;;;;;4.53;2.55;;;;;;;25.37;44.43;99231.72;5114674;28;20610;-58
2021/08/17 20:36:10;;;;;;;5.38;2.55;;;;;;;25.38;44.18;99226.28;5114332;28;20463;-58
2021/08/17 20:38:39;;;;;;;6.40;2.58;;;;;;;25.39;44.13;99222.66;5114435;28;20100;-58
2021/08/17 20:41:05;;;;;;;7.88;2.60;;;;;;;25.39;44.39;99224.47;5114164;28;20043;-59
2021/08/17 20:43:32;;;;;;;4.50;2.50;;;;;;;25.41;44.19;99226.06;5096565;28;20048;-56
2021/08/17 20:45:59;;;;;;;5.43;2.75;;;;;;;25.42;44.34;99226.94;5114267;28;20039;-55
2021/08/17 20:48:26;;;;;;;6.28;2.70;;;;;;;25.39;44.36;99232.47;5108688;28;20035;-56
2021/08/17 20:50:53;;;;;;;4.97;2.60;;;;;;;25.37;44.26;99239.72;5114263;28;20108;-56
2021/08/17 20:53:20;;;;;;;5.03;2.70;;;;;;;25.34;44.27;99238.13;5114410;28;20043;-56
2021/08/17 20:55:48;;;;;;;4.25;2.40;;;;;;;25.32;44.62;99232.91;5114292;28;20043;-60
2021/08/17 20:58:16;;;;;;;4.85;2.30;;;;;;;25.31;44.53;99233.00;5114618;28;20044;-60
2021/08/17 21:00:43;;;;;;;4.47;2.50;;;;;;;25.30;44.90;99232.16;5114223;28;20043;-59
2021/08/17 21:03:10;;;;;;;4.88;2.30;;;;;;;25.29;44.85;99224.25;5114204;28;20481;-59
2021/08/17 21:05:37;;;;;;;6.38;2.90;;;;;;;25.28;44.72;99219.84;5114053;28;20081;-59
2021/08/17 21:08:04;;;;;;;6.35;2.50;;;;;;;25.28;44.84;99217.19;5113446;28;20047;-59
2021/08/17 21:10:31;;;;;;;5.20;2.50;;;;;;;25.24;44.60;99219.22;5113816;28;20163;-59
2021/08/17 21:12:59;;;;;;;5.45;2.25;;;;;;;25.21;44.74;99224.72;5113674;28;20043;-58
2021/08/17 21:15:26;;;;;;;5.22;2.67;;;;;;;25.18;44.63;99224.91;5112677;27;20040;-58
2021/08/17 21:17:53;;;;;;;6.13;2.42;;;;;;;25.16;44.80;99221.50;5109973;28;20197;-58
2021/08/17 21:20:19;;;;;;;5.13;2.63;;;;;;;25.12;44.64;99226.16;5113445;28;20096;-57
2021/08/17 21:22:46;;;;;;;3.80;2.30;;;;;;;25.10;44.57;99233.41;5113715;28;20043;-58
2021/08/17 21:25:14;;;;;;;5.55;2.30;;;;;;;25.09;44.49;99230.88;5113528;28;20447;-58
2021/08/17 21:27:41;;;;;;;3.88;2.20;;;;;;;25.07;44.44;99243.47;5114028;28;20084;-58
2021/08/17 21:30:11;;;;;;;7.75;2.63;;;;;;;25.05;44.47;99242.72;5113965;28;20047;-59
2021/08/17 21:32:37;;;;;;;4.40;2.40;;;;;;;25.04;44.59;99244.50;5113165;28;20794;-59
2021/08/17 21:35:05;;;;;;;7.30;2.40;;;;;;;25.00;44.27;99247.47;5113897;28;20043;-59
2021/08/17 21:37:32;;;;;;;4.25;2.30;;;;;;;24.99;44.33;99251.06;5112017;28;20554;-58
2021/08/17 21:39:59;;;;;;;3.35;2.33;;;;;;;25.02;44.71;99253.56;5119659;27;20069;-58
2021/08/17 21:42:25;;;;;;;5.13;2.35;;;;;;;25.02;44.30;99251.75;5112357;28;20101;-56
2021/08/17 21:44:52;;;;;;;4.57;2.40;;;;;;;25.03;44.26;99257.91;5113055;28;20490;-56
2021/08/17 21:47:20;;;;;;;6.78;2.50;;;;;;;25.01;44.13;99254.50;5094577;28;20457;-57
2021/08/17 21:49:47;;;;;;;6.22;2.30;;;;;;;25.02;44.40;99261.56;5113443;28;20578;-57
2021/08/17 21:52:14;;;;;;;5.25;2.58;;;;;;;25.01;44.30;99259.81;5112952;28;20043;-56
2021/08/17 21:54:41;;;;;;;6.05;2.50;;;;;;;24.99;44.28;99256.41;5094061;28;20047;-57
2021/08/17 21:57:07;;;;;;;5.80;2.53;;;;;;;24.93;44.12;99242.56;5113425;28;20070;-57
2021/08/17 21:59:35;;;;;;;8.65;2.50;;;;;;;24.93;44.47;99247.00;5113086;28;20550;-57
2021/08/17 22:02:02;;;;;;;5.28;2.45;;;;;;;24.91;44.20;99244.47;5112991;28;20066;-57
2021/08/17 22:04:30;;;;;;;5.45;2.33;;;;;;;24.89;44.20;99243.72;5112876;28;20043;-57
2021/08/17 22:06:56;;;;;;;5.53;2.47;;;;;;;24.88;44.25;99235.81;5112892;28;20047;-57
2021/08/17 22:09:23;;;;;;;4.22;2.70;;;;;;;24.88;44.46;99239.31;5112530;28;20493;-57
2021/08/17 22:11:50;;;;;;;4.25;2.40;;;;;;;24.91;44.62;99236.47;5112771;28;20104;-57
2021/08/17 22:14:16;;;;;;;5.07;2.50;;;;;;;24.91;44.52;99238.25;5112171;28;20047;-57
2021/08/17 22:16:43;;;;;;;5.68;2.33;;;;;;;24.93;44.35;99244.34;5128265;27;20036;-57
2021/08/17 22:19:10;;;;;;;5.88;2.55;;;;;;;24.93;44.31;99249.66;5112868;28;20048;-57
2021/08/17 22:21:38;;;;;;;6.38;2.60;;;;;;;24.88;44.12;99241.97;5112628;28;20504;-57
2021/08/17 22:24:05;;;;;;;4.28;2.38;;;;;;;24.87;44.55;99242.94;5112649;28;20093;-57
2021/08/17 22:26:32;;;;;;;5.13;2.40;;;;;;;24.88;44.61;99243.81;5112837;28;20088;-57
2021/08/17 22:28:58;;;;;;;6.40;2.50;;;;;;;24.88;44.51;99243.81;5122463;27;20598;-56
2021/08/17 22:31:26;;;;;;;5.35;2.40;;;;;;;24.88;44.49;99243.81;5120637;27;20051;-56
2021/08/17 22:33:53;;;;;;;4.90;2.30;;;;;;;24.89;44.61;99235.72;5112702;28;20433;-57
2021/08/17 22:36:20;;;;;;;5.38;2.70;;;;;;;24.86;44.48;99230.56;5112051;28;20100;-57
2021/08/17 22:38:48;;;;;;;6.53;2.90;;;;;;;24.82;44.58;99234.38;5112427;28;20047;-57
2021/08/17 22:41:14;;;;;;;4.80;2.45;;;;;;;24.80;44.68;99230.97;5112625;28;20036;-56
2021/08/17 22:43:41;;;;;;;4.45;2.30;;;;;;;24.77;44.75;99226.69;5113532;28;20546;-57
2021/08/17 22:46:08;;;;;;;5.50;2.50;;;;;;;24.77;44.71;99223.16;5112559;28;20040;-56
2021/08/17 22:48:34;;;;;;;4.15;2.47;;;;;;;24.81;44.75;99226.50;5112693;28;20479;-56
2021/08/17 22:51:01;;;;;;;6.03;2.50;;;;;;;24.80;44.70;99220.31;5112550;28;20502;-57
2021/08/17 22:53:29;;;;;;;5.38;2.50;;;;;;;24.80;44.45;99208.81;5112664;28;20043;-57
2021/08/17 22:55:57;;;;;;;4.78;2.45;;;;;;;24.80;44.59;99214.13;5112369;28;20047;-57
2021/08/17 22:58:24;;;;;;;5.32;2.63;;;;;;;24.78;44.36;99206.25;5121321;27;20118;-57
2021/08/17 23:00:51;;;;;;;7.20;2.40;;;;;;;24.75;44.63;99217.09;5136127;27;20047;-56
2021/08/17 23:03:17;;;;;;;3.80;2.33;;;;;;;24.72;44.56;99211.97;5116567;28;20047;-57
2021/08/17 23:05:44;;;;;;;4.85;2.50;;;;;;;24.69;44.82;99205.00;5116610;28;20044;-56
2021/08/17 23:08:11;;;;;;;5.45;2.60;;;;;;;24.67;44.64;99198.09;5116163;28;20044;-56
2021/08/17 23:10:39;;;;;;;6.15;2.55;;;;;;;24.64;44.49;99198.28;5116247;28;20043;-57
2021/08/17 23:13:07;;;;;;;4.75;2.50;;;;;;;24.62;44.65;99205.50;5122505;27;20130;-57
2021/08/17 23:15:34;;;;;;;4.72;2.55;;;;;;;24.59;44.75;99211.06;5116311;28;20054;-57
2021/08/17 23:18:01;;;;;;;7.20;2.58;;;;;;;24.56;44.83;99207.63;5112891;27;20096;-56
2021/08/17 23:20:28;;;;;;;5.57;2.35;;;;;;;24.54;44.86;99198.88;5132462;27;20055;-56
2021/08/17 23:22:54;;;;;;;5.70;2.67;;;;;;;24.53;44.93;99207.81;5136999;27;20466;-57
2021/08/17 23:25:21;;;;;;;5.93;2.63;;;;;;;24.51;45.00;99208.88;5120508;27;20039;-57
2021/08/17 23:27:48;;;;;;;5.22;2.55;;;;;;;24.49;45.01;99200.94;5116256;28;20040;-56
2021/08/17 23:30:16;;;;;;;5.47;2.53;;;;;;;24.47;44.90;99204.66;5115253;27;20093;-57
2021/08/17 23:32:43;;;;;;;4.53;2.47;;;;;;;24.46;45.13;99198.47;5115622;28;20043;-56
2021/08/17 23:35:10;;;;;;;4.93;2.38;;;;;;;24.45;45.11;99199.44;5115795;28;20511;-56
2021/08/17 23:37:37;;;;;;;3.78;2.33;;;;;;;24.47;45.05;99208.19;5114992;28;20051;-57
2021/08/17 23:40:05;;;;;;;5.18;2.53;;;;;;;24.46;45.17;99195.81;5111903;28;20043;-57
2021/08/17 23:42:32;;;;;;;8.68;2.67;;;;;;;24.44;45.31;99191.53;5116063;28;20039;-56
2021/08/17 23:44:58;;;;;;;5.20;2.38;;;;;;;24.44;45.23;99197.72;5118741;27;20047;-56
2021/08/17 23:47:27;;;;;;;7.05;2.65;;;;;;;24.42;45.09;99193.44;5115585;28;20089;-57
2021/08/17 23:49:53;;;;;;;6.25;2.50;;;;;;;24.36;45.08;99202.69;5097383;28;20044;-57
2021/08/17 23:52:20;;;;;;;5.55;2.63;;;;;;;24.34;45.42;99193.94;5115550;28;20554;-57
2021/08/17 23:54:47;;;;;;;4.50;2.30;;;;;;;24.34;45.33;99197.44;5097013;28;20493;-57
2021/08/17 23:57:14;;;;;;;4.13;2.40;;;;;;;24.35;45.39;99193.84;5115574;28;20036;-57
2021/08/17 23:59:40;;;;;;;4.85;2.47;;;;;;;24.35;45.08;99193.84;5124518;27;20585;-57
